• Join FlightAware (Why Join?)
  • Login
  • US Flag 
05:48PM EDT


 

Airport Tracker/Info


-or-


 

Live Flight TrackerFlight Track Log ✈ EMD28 ✈ 03-Aug-2013 ✈ KGYH - KGYH

Flight Track Log - Related Links

Times and Time Zones

All times are in EDT time to prevent confusion due to time zone crossing. See the EMD28 flight status page for this flight to view local times or setup timezone preferences in your user account.

Time Position Orientation Groundspeed Altitude Reporting Facility
EDT Latitude Longitude Course Direction KTS MPH feet Rate Location/Type
11:11AM 34.6525 -82.4758 216° Southwest 134 154 5,700  Level Atlanta Center
11:12AM 34.6236 -82.5042 219° Southwest 139 160 7,100 1,200 Climbing Atlanta Center
11:13AM 34.5947 -82.5297 216° Southwest 139 160 8,200 1,080 Climbing Atlanta Center
11:14AM 34.4835 -82.6165 214° Southwest  Level FlightAware Approximate
11:14AM 34.5639 -82.5606 219° Southwest 139 160 9,300  Level Atlanta Center
11:15AM 34.4397 -82.6590 216° Southwest  Level FlightAware Approximate
11:15AM 34.5308 -82.5864 213° Southwest 139 160 10,500  Level Atlanta Center
11:16AM 34.3942 -82.6989 216° Southwest  Level FlightAware Approximate
11:16AM 34.4978 -82.6147 215° Southwest 145 167 11,500  Level Atlanta Center
11:17AM 34.4625 -82.6456 216° Southwest 150 173 12,500 900 Climbing Atlanta Center
11:18AM 34.4317 -82.6764 220° Southwest 151 174 13,400 960 Climbing Atlanta Center
11:19AM 34.4028 -82.7094 223° Southwest 151 174 14,500 1,020 Climbing Atlanta Center
11:20AM 34.3739 -82.7375 219° Southwest 143 165 15,500 900 Climbing Atlanta Center
11:21AM 34.3450 -82.7633 216° Southwest 138 159 16,300 720 Climbing Atlanta Center
11:22AM 34.3139 -82.7914 217° Southwest 138 159 17,000 660 Climbing Atlanta Center
11:23AM 34.2808 -82.8219 217° Southwest 138 159 17,700 480 Climbing Atlanta Center
11:24AM 34.2475 -82.8475 212° Southwest 146 168 18,000 120 Climbing Atlanta Center
11:25AM 34.2106 -82.8858 221° Southwest 168 193 18,000  Level Atlanta Center
11:26AM 34.1669 -82.9267 218° Southwest 189 217 18,000  Level Atlanta Center
11:27AM 34.1256 -82.9647 217° Southwest 201 231 18,000  Level Atlanta Center
11:28AM 34.0800 -83.0081 218° Southwest 206 237 18,000  Level Atlanta Center
11:29AM 34.0344 -83.0486 216° Southwest 206 237 18,000  Level Atlanta Center
11:30AM 33.9847 -83.0944 217° Southwest 206 237 18,000  Level Atlanta Center
11:31AM 33.9392 -83.1350 216° Southwest 201 231 18,000  Level Atlanta Center
11:32AM 33.8956 -83.1753 217° Southwest 201 231 18,000  Level Atlanta Center
11:33AM 33.8478 -83.2158 215° Southwest 201 231 18,000  Level Atlanta Center
11:34AM 33.8042 -83.2589 219° Southwest 206 237 18,000  Level Atlanta Center
11:35AM 33.7608 -83.2992 218° Southwest 206 237 18,000  Level Atlanta Center
11:36AM 33.7172 -83.3394 218° Southwest 206 237 18,000  Level Atlanta Center
11:37AM 33.6736 -83.3822 219° Southwest 199 229 18,000  Level Atlanta Center
11:38AM 33.6258 -83.4225 215° Southwest 199 229 18,000  Level Atlanta Center
11:39AM 33.5861 -83.4603 218° Southwest 204 235 18,000  Level Atlanta Center
11:40AM 33.5383 -83.5031 217° Southwest 204 235 18,000  Level Atlanta Center
11:41AM 33.4947 -83.5431 217° Southwest 204 235 18,000  Level Atlanta Center
11:42AM 33.4489 -83.5833 216° Southwest 204 235 18,000  Level Atlanta Center
11:43AM 33.4053 -83.6258 219° Southwest 204 235 18,000  Level Atlanta Center
11:44AM 33.3553 -83.6683 215° Southwest 204 235 18,000  Level Atlanta Center
11:45AM 33.3094 -83.7106 218° Southwest 204 235 18,000  Level Atlanta Center
11:46AM 33.2617 -83.7531 217° Southwest 204 235 18,000  Level Atlanta Center
11:47AM 33.2158 -83.7956 218° Southwest 209 241 18,000  Level Atlanta Center
11:48AM 33.1700 -83.8378 218° Southwest 209 241 18,000  Level Atlanta Center
11:49AM 33.1261 -83.8775 217° Southwest 204 235 18,000  Level Atlanta Center
11:50AM 33.0803 -83.9197 218° Southwest 209 241 18,000  Level Atlanta Center
11:51AM 33.0344 -83.9569 214° Southwest 209 241 18,000 240 Level Atlanta Center
11:52AM 33.0219 -84.0117 255° West 166 191 18,500 420 Climbing Atlanta Center
11:53AM 33.0636 -83.9992 14° North 78 90 18,900 240 Climbing Atlanta Center
11:54AM 33.1139 -83.9544 37° Northeast 165 190 19,000  Climbing Atlanta Center
11:55AM 33.1617 -83.9097 38° Northeast 191 220 19,000  Level Atlanta Center
11:56AM 33.2139 -83.8600 39° Northeast 222 255 19,000  Level Atlanta Center
11:57AM 33.2639 -83.8128 38° Northeast 231 266 19,000  Level Atlanta Center
11:58AM 33.3139 -83.7653 38° Northeast 226 260 19,000  Level Atlanta Center
11:59AM 33.3681 -83.7181 36° Northeast 226 260 19,000  Level Atlanta Center
12:00PM 33.4181 -83.6681 40° Northeast 232 267 19,000  Level Atlanta Center
12:01PM 33.4700 -83.6206 37° Northeast 227 261 19,000  Level Atlanta Center
12:02PM 33.5242 -83.5678 39° Northeast 227 261 19,000  Level Atlanta Center
12:03PM 33.5761 -83.5203 37° Northeast 227 261 19,000  Level Atlanta Center
12:04PM 33.6239 -83.4725 40° Northeast 227 261 19,000  Level Atlanta Center
12:05PM 33.6758 -83.4222 39° Northeast 227 261 19,000  Level Atlanta Center
12:06PM 33.7278 -83.3744 37° Northeast 227 261 19,000  Level Atlanta Center
12:07PM 33.7775 -83.3289 37° Northeast 227 261 19,000  Level Atlanta Center
12:08PM 33.8275 -83.2786 40° Northeast 227 261 19,000 -660 Level Atlanta Center
12:09PM 33.8814 -83.2256 39° Northeast 239 275 17,700 -1,380 Descending Atlanta Center
12:10PM 33.9456 -83.1675 37° Northeast 267 307 16,300 -1,500 Descending Atlanta Center
12:11PM 34.0078 -83.1067 39° Northeast 278 320 14,800 -1,500 Descending Atlanta Center
12:12PM 34.0636 -83.0508 40° Northeast 273 314 13,400 -1,320 Descending Atlanta Center
12:13PM 34.1175 -83.0000 38° Northeast 266 306 12,200 -1,200 Descending Atlanta Center
12:14PM 34.1714 -82.9467 39° Northeast 254 292 11,000 -600 Descending Atlanta Center
12:15PM 34.2231 -82.8958 39° Northeast 241 277 11,000  Level Atlanta Center
12:16PM 34.2728 -82.8497 37° Northeast 223 257 11,000  Level Atlanta Center
12:17PM 34.3222 -82.8014 39° Northeast 223 257 11,000  Level Atlanta Center
12:18PM 34.3739 -82.7528 38° Northeast 230 265 11,000 -540 Level Atlanta Center
12:19PM 34.4256 -82.7042 38° Northeast 230 265 10,000 -1,020 Descending Atlanta Center
12:20PM 34.4772 -82.6528 39° Northeast 230 265 9,000 -1,020 Descending Atlanta Center
12:21PM 34.5289 -82.6042 38° Northeast 230 265 8,000 -1,140 Descending Atlanta Center
12:22PM 34.5783 -82.5553 39° Northeast 230 265 6,800 -1,200 Descending Atlanta Center
12:23PM 34.6300 -82.5039 39° Northeast 230 265 5,600 -1,140 Descending Atlanta Center
12:24PM 34.6750 -82.4475 46° Northeast 225 259 4,600 -1,020 Descending Atlanta Center
12:26PM 34.7368 -82.3799 39° Northeast  Level FlightAware Approximate
12:33PM 34.7500 -82.3667 39° Northeast  Level FlightAware Approximate
12:34PM 34.7583 -82.3764 39° Northeast  Level Estimated
12:35PM 34.7583 -82.3764 39° Northeast  Level Estimated